createdAt,value
2023-05-10T00:01:30.153Z,0.45
2023-05-10T00:03:58.917Z,0.20
2023-05-10T00:06:28.049Z,0.22
2023-05-10T00:08:58.119Z,0.40
2023-05-10T00:11:28.300Z,0.32
2023-05-10T00:13:57.015Z,0.40
2023-05-10T00:16:25.781Z,0.50
2023-05-10T00:18:54.470Z,0.32
2023-05-10T00:21:23.114Z,0.40
2023-05-10T00:23:51.780Z,0.30
2023-05-10T00:26:21.836Z,0.40
2023-05-10T00:28:50.760Z,0.20
2023-05-10T00:31:19.405Z,0.40
2023-05-10T00:33:48.058Z,0.40
2023-05-10T00:36:17.076Z,0.40
2023-05-10T00:38:45.619Z,0.35
2023-05-10T00:41:14.236Z,0.40
2023-05-10T00:43:44.385Z,0.60
2023-05-10T00:46:13.337Z,0.50
2023-05-10T00:48:42.109Z,0.45
2023-05-10T00:51:10.693Z,0.60
2023-05-10T00:53:39.410Z,0.75
2023-05-10T00:56:08.208Z,0.60
2023-05-10T00:58:36.717Z,0.30
2023-05-10T01:01:07.950Z,0.20
2023-05-10T01:03:36.644Z,0.20
2023-05-10T01:06:05.400Z,0.10
2023-05-10T01:08:33.686Z,0.10
2023-05-10T01:11:01.850Z,0.20
2023-05-10T01:13:35.215Z,0.10
2023-05-10T01:16:04.346Z,0.10
2023-05-10T01:18:36.958Z,0.17
2023-05-10T01:21:17.234Z,0.10
2023-05-10T01:24:11.490Z,0.10
2023-05-10T01:27:09.900Z,0.10
2023-05-10T01:30:16.024Z,0.10
2023-05-10T01:32:55.431Z,0.15
2023-05-10T01:35:34.142Z,0.30
2023-05-10T01:38:09.819Z,0.20
2023-05-10T01:40:44.740Z,0.10
2023-05-10T01:43:20.671Z,0.10
2023-05-10T01:45:56.769Z,0.13
2023-05-10T01:48:30.322Z,0.20
2023-05-10T01:51:00.407Z,0.25
2023-05-10T01:53:29.503Z,0.10
2023-05-10T01:55:58.347Z,0.20
2023-05-10T01:58:31.629Z,0.10
2023-05-10T02:01:02.138Z,0.20
2023-05-10T02:03:33.293Z,0.15
2023-05-10T02:06:01.825Z,0.10
2023-05-10T02:08:30.988Z,0.10
2023-05-10T02:11:00.452Z,0.20
2023-05-10T02:13:29.626Z,0.20
2023-05-10T02:15:59.118Z,0.28
2023-05-10T02:18:29.339Z,0.20
2023-05-10T02:21:00.182Z,0.28
2023-05-10T02:23:29.107Z,0.13
2023-05-10T02:25:58.505Z,0.10
2023-05-10T02:28:28.056Z,0.32
2023-05-10T02:30:57.150Z,0.30
2023-05-10T02:33:26.091Z,0.22
2023-05-10T02:35:55.058Z,0.30
2023-05-10T02:38:27.171Z,0.30
2023-05-10T02:40:56.380Z,0.38
2023-05-10T02:43:26.560Z,0.28
2023-05-10T02:45:54.915Z,0.40
2023-05-10T02:48:23.098Z,0.32
2023-05-10T02:50:54.512Z,0.52
2023-05-10T02:53:33.398Z,0.35
2023-05-10T02:56:04.907Z,0.30
2023-05-10T03:01:02.120Z,0.40
2023-05-10T03:03:30.644Z,0.30
2023-05-10T03:05:59.527Z,0.40
2023-05-10T03:08:30.372Z,0.40
2023-05-10T03:11:18.959Z,0.50
2023-05-10T03:13:56.308Z,0.35
2023-05-10T03:16:30.349Z,0.50
2023-05-10T03:19:04.591Z,0.40
2023-05-10T03:21:34.136Z,0.40
2023-05-10T03:24:09.088Z,0.40
2023-05-10T03:26:38.741Z,0.30
2023-05-10T03:29:08.737Z,0.50
2023-05-10T03:31:38.042Z,0.30
2023-05-10T03:34:06.206Z,0.40
2023-05-10T03:36:34.513Z,0.47
2023-05-10T03:39:04.789Z,0.40
2023-05-10T03:41:33.091Z,0.50
2023-05-10T03:44:01.232Z,0.50
2023-05-10T03:46:29.449Z,0.35
2023-05-10T03:48:57.605Z,0.30
2023-05-10T03:51:29.051Z,0.43
2023-05-10T03:53:57.214Z,0.50
2023-05-10T03:56:26.809Z,0.40
2023-05-10T03:58:54.957Z,0.40
2023-05-10T04:01:23.127Z,0.32
2023-05-10T04:03:51.315Z,0.30
2023-05-10T04:06:19.662Z,0.40
2023-05-10T04:08:47.872Z,0.40
2023-05-10T04:11:16.064Z,0.50
2023-05-10T04:13:45.602Z,0.47
2023-05-10T04:16:13.813Z,0.40
2023-05-10T04:18:42.035Z,0.52
2023-05-10T04:21:14.674Z,0.60
2023-05-10T04:23:43.259Z,0.60
2023-05-10T04:26:11.468Z,1.10
2023-05-10T04:28:39.774Z,1.52
2023-05-10T04:31:11.800Z,0.80
2023-05-10T04:33:40.094Z,0.80
2023-05-10T04:36:08.649Z,0.70
2023-05-10T04:38:36.837Z,0.70
2023-05-10T04:41:08.594Z,0.68
2023-05-10T04:43:37.450Z,0.70
2023-05-10T04:46:06.143Z,0.60
2023-05-10T04:48:35.909Z,0.65
2023-05-10T04:51:04.978Z,0.50
2023-05-10T04:53:33.613Z,0.60
2023-05-10T04:56:01.870Z,0.70
2023-05-10T04:58:30.076Z,0.82
2023-05-10T05:00:58.210Z,0.65
2023-05-10T05:03:26.520Z,0.50
2023-05-10T05:05:56.077Z,1.00
2023-05-10T05:08:25.030Z,1.00
2023-05-10T05:10:53.270Z,0.75
2023-05-10T05:13:21.618Z,1.10
2023-05-10T05:15:49.898Z,1.00
2023-05-10T05:18:18.109Z,0.90
2023-05-10T05:20:46.298Z,0.55
2023-05-10T05:23:15.862Z,0.45
2023-05-10T05:25:44.151Z,0.57
2023-05-10T05:28:12.282Z,0.80
2023-05-10T05:30:40.453Z,0.60
2023-05-10T05:33:08.675Z,0.50
2023-05-10T05:35:36.872Z,0.60
2023-05-10T05:38:05.099Z,0.52
2023-05-10T05:40:34.601Z,0.60
2023-05-10T05:43:02.773Z,0.60
2023-05-10T05:45:30.968Z,0.60
2023-05-10T05:47:59.852Z,0.60
2023-05-10T05:50:28.082Z,0.52
2023-05-10T05:52:56.343Z,0.50
2023-05-10T05:55:25.155Z,0.80
2023-05-10T05:57:55.017Z,0.70
2023-05-10T06:00:23.961Z,1.00
2023-05-10T06:02:52.202Z,0.70
2023-05-10T06:05:21.246Z,0.90
2023-05-10T06:07:49.409Z,0.75
2023-05-10T06:10:17.664Z,0.60
2023-05-10T06:12:46.131Z,0.50
2023-05-10T06:15:16.083Z,0.50
2023-05-10T06:17:45.316Z,0.40
2023-05-10T06:20:14.948Z,0.70
2023-05-10T06:22:43.097Z,0.50
2023-05-10T06:25:12.488Z,0.47
2023-05-10T06:27:40.653Z,0.43
2023-05-10T06:30:13.321Z,0.60
2023-05-10T06:32:44.831Z,0.50
2023-05-10T06:35:13.166Z,0.50
2023-05-10T06:37:41.375Z,0.43
2023-05-10T06:40:10.439Z,0.50
2023-05-10T06:42:38.987Z,0.60
2023-05-10T06:45:08.241Z,0.60
2023-05-10T06:47:38.809Z,0.70
2023-05-10T06:50:10.073Z,0.80
2023-05-10T06:52:38.334Z,0.73
2023-05-10T06:55:08.047Z,0.70
2023-05-10T06:57:36.429Z,0.90
2023-05-10T07:00:06.259Z,0.98
2023-05-10T07:02:34.565Z,0.60
2023-05-10T07:05:03.672Z,0.80
2023-05-10T07:07:33.384Z,1.27
2023-05-10T07:10:01.500Z,0.95
2023-05-10T07:12:29.937Z,0.70
2023-05-10T07:14:58.163Z,0.75
2023-05-10T07:17:26.710Z,0.80
2023-05-10T07:19:55.084Z,0.80
2023-05-10T07:22:23.235Z,0.90
2023-05-10T07:24:52.781Z,0.70
2023-05-10T07:27:20.908Z,1.02
2023-05-10T07:29:49.604Z,0.80
2023-05-10T07:32:17.841Z,0.90
2023-05-10T07:34:46.048Z,0.70
2023-05-10T07:37:14.378Z,0.60
2023-05-10T07:39:42.566Z,0.60
2023-05-10T07:42:12.138Z,0.60
2023-05-10T07:44:40.320Z,0.68
2023-05-10T07:47:08.493Z,0.98
2023-05-10T07:49:36.680Z,0.80
2023-05-10T07:52:05.994Z,1.00
2023-05-10T07:54:34.860Z,0.85
2023-05-10T07:57:03.365Z,0.70
2023-05-10T07:59:33.263Z,0.80
2023-05-10T08:02:01.753Z,1.02
2023-05-10T08:04:29.969Z,1.02
2023-05-10T08:06:58.212Z,0.60
2023-05-10T08:09:26.387Z,0.70
2023-05-10T08:11:54.533Z,1.05
2023-05-10T08:14:22.719Z,1.10
2023-05-10T08:16:52.265Z,0.68
2023-05-10T08:19:20.727Z,0.80
2023-05-10T08:21:48.911Z,0.55
2023-05-10T08:24:17.437Z,0.40
2023-05-10T08:26:45.613Z,0.40
2023-05-10T08:29:13.753Z,0.60
2023-05-10T08:31:41.954Z,0.60
2023-05-10T08:34:11.515Z,0.50
2023-05-10T08:36:39.838Z,0.50
2023-05-10T08:39:16.215Z,0.55
2023-05-10T08:41:54.701Z,0.60
2023-05-10T08:44:23.026Z,0.70
2023-05-10T08:46:55.787Z,0.75
2023-05-10T08:49:27.640Z,0.70
2023-05-10T08:51:59.165Z,1.20
2023-05-10T08:56:55.647Z,0.38
2023-05-10T08:59:24.649Z,1.92
2023-05-10T09:01:54.572Z,0.93
2023-05-10T09:04:25.213Z,0.40
2023-05-10T09:06:53.588Z,0.45
2023-05-10T09:09:22.676Z,0.50
2023-05-10T09:11:51.075Z,0.38
2023-05-10T09:14:19.808Z,0.22
2023-05-10T09:16:48.930Z,0.20
2023-05-10T09:19:17.212Z,0.30
2023-05-10T09:21:46.744Z,0.30
2023-05-10T09:24:14.944Z,0.32
2023-05-10T09:26:49.710Z,0.40
2023-05-10T09:29:18.204Z,0.30
2023-05-10T09:31:48.895Z,0.40
2023-05-10T09:34:22.114Z,0.30
2023-05-10T09:36:56.290Z,0.30
2023-05-10T09:39:32.992Z,0.32
2023-05-10T09:42:04.673Z,0.20
2023-05-10T09:44:33.576Z,0.30
2023-05-10T09:47:02.017Z,0.30
2023-05-10T09:49:30.678Z,0.20
2023-05-10T09:52:08.308Z,0.30
2023-05-10T09:54:37.360Z,0.10
2023-05-10T09:57:06.068Z,0.30
2023-05-10T09:59:36.313Z,0.40
2023-05-10T10:02:05.226Z,0.30
2023-05-10T10:04:33.824Z,0.30
2023-05-10T10:07:03.795Z,0.10
2023-05-10T10:09:33.749Z,0.20
2023-05-10T10:12:02.255Z,0.10
2023-05-10T10:14:31.400Z,0.00
2023-05-10T10:19:36.265Z,0.20
2023-05-10T10:24:35.075Z,0.20
2023-05-10T10:27:15.908Z,0.20
2023-05-10T10:29:54.582Z,0.20
2023-05-10T10:32:30.177Z,0.20
2023-05-10T10:34:58.780Z,0.60
2023-05-10T10:37:45.290Z,0.30
2023-05-10T10:40:33.590Z,0.50
2023-05-10T10:43:24.227Z,0.13
2023-05-10T10:46:14.468Z,0.20
2023-05-10T10:48:43.427Z,0.30
2023-05-10T10:51:12.988Z,0.40
2023-05-10T10:53:43.094Z,0.35
2023-05-10T10:56:16.211Z,0.47
2023-05-10T10:58:52.200Z,0.40
2023-05-10T11:01:21.570Z,0.30
2023-05-10T11:04:21.833Z,0.30
2023-05-10T11:06:50.024Z,0.20
2023-05-10T11:09:18.598Z,0.30
2023-05-10T11:11:57.144Z,0.30
2023-05-10T11:14:25.439Z,0.28
2023-05-10T11:16:53.904Z,0.40
2023-05-10T11:19:22.144Z,0.30
2023-05-10T11:21:51.307Z,0.30
2023-05-10T11:24:21.948Z,0.30
2023-05-10T11:26:53.270Z,0.40
2023-05-10T11:29:22.828Z,0.40
2023-05-10T11:31:53.138Z,0.50
2023-05-10T11:34:28.777Z,0.80
2023-05-10T11:36:58.030Z,0.60
2023-05-10T11:39:29.587Z,0.70
2023-05-10T11:44:32.191Z,0.40
2023-05-10T11:47:02.352Z,0.30
2023-05-10T11:49:30.792Z,0.47
2023-05-10T11:52:07.303Z,0.50
2023-05-10T11:54:36.397Z,0.57
2023-05-10T11:57:04.844Z,0.40
2023-05-10T11:59:34.414Z,0.45
2023-05-10T12:02:02.868Z,0.30
2023-05-10T12:04:31.471Z,0.52
2023-05-10T12:06:59.852Z,0.40
2023-05-10T12:11:59.142Z,0.40
2023-05-10T12:14:27.625Z,0.60
2023-05-10T12:16:59.662Z,0.40
2023-05-10T12:19:27.884Z,0.60
2023-05-10T12:21:56.052Z,0.50
2023-05-10T12:24:25.829Z,0.47
2023-05-10T12:26:54.062Z,0.35
2023-05-10T12:29:22.547Z,0.50
2023-05-10T12:31:57.034Z,0.50
2023-05-10T12:34:28.890Z,0.40
2023-05-10T12:36:57.802Z,0.40
2023-05-10T12:39:26.180Z,0.40
2023-05-10T12:41:54.416Z,0.50
2023-05-10T12:44:22.834Z,0.40
2023-05-10T12:46:51.036Z,0.60
2023-05-10T12:49:20.663Z,0.50
2023-05-10T12:51:48.844Z,0.60
2023-05-10T12:54:16.986Z,0.55
2023-05-10T12:56:45.898Z,0.30
2023-05-10T12:59:14.133Z,0.75
2023-05-10T13:01:42.349Z,0.57
2023-05-10T13:04:10.865Z,0.45
2023-05-10T13:06:41.719Z,0.70
2023-05-10T13:09:09.976Z,0.38
2023-05-10T13:11:38.131Z,0.52
2023-05-10T13:14:06.464Z,1.13
2023-05-10T13:16:34.780Z,2.10
2023-05-10T13:19:03.034Z,0.57
2023-05-10T13:21:31.512Z,0.60
2023-05-10T13:24:01.248Z,0.57
2023-05-10T13:26:29.737Z,0.50
2023-05-10T13:28:57.932Z,0.60
2023-05-10T13:31:26.208Z,0.70
2023-05-10T13:33:54.427Z,0.55
2023-05-10T13:36:23.846Z,0.60
2023-05-10T13:38:52.041Z,0.52
2023-05-10T13:41:21.874Z,0.60
2023-05-10T13:43:50.625Z,0.60
2023-05-10T13:46:18.799Z,0.40
2023-05-10T13:48:47.011Z,0.50
2023-05-10T13:51:15.183Z,0.70
2023-05-10T13:53:43.360Z,0.80
2023-05-10T13:56:11.533Z,0.57
2023-05-10T13:58:41.210Z,0.40
2023-05-10T14:01:09.473Z,0.40
2023-05-10T14:03:38.145Z,0.50
2023-05-10T14:06:08.394Z,0.63
2023-05-10T14:08:37.552Z,0.35
2023-05-10T14:11:05.890Z,0.50
2023-05-10T14:13:34.133Z,0.50
2023-05-10T14:16:03.729Z,0.50
2023-05-10T14:18:32.111Z,0.50
2023-05-10T14:21:00.342Z,0.50
2023-05-10T14:23:29.755Z,0.50
2023-05-10T14:25:58.409Z,0.30
2023-05-10T14:28:26.729Z,0.60
2023-05-10T14:30:55.044Z,0.60
2023-05-10T14:33:24.663Z,0.80
2023-05-10T14:35:53.242Z,0.50
2023-05-10T14:38:21.504Z,0.57
2023-05-10T14:40:49.690Z,0.60
2023-05-10T14:43:17.859Z,0.50
2023-05-10T14:45:46.298Z,0.70
2023-05-10T14:48:16.522Z,0.55
2023-05-10T14:50:46.293Z,0.40
2023-05-10T14:53:14.480Z,0.57
2023-05-10T14:55:42.702Z,0.30
2023-05-10T14:58:10.852Z,0.50
2023-05-10T15:00:38.997Z,0.40
2023-05-10T15:03:07.842Z,0.40
2023-05-10T15:05:38.353Z,0.30
2023-05-10T15:08:08.047Z,0.50
2023-05-10T15:10:36.300Z,0.38
2023-05-10T15:13:06.746Z,0.40
2023-05-10T15:15:35.037Z,0.30
2023-05-10T15:18:03.230Z,0.47
2023-05-10T15:20:31.439Z,0.50
2023-05-10T15:22:59.598Z,0.40
2023-05-10T15:25:29.908Z,0.40
2023-05-10T15:27:58.161Z,0.38
2023-05-10T15:30:26.389Z,0.60
2023-05-10T15:32:54.632Z,0.63
2023-05-10T15:35:23.360Z,0.70
2023-05-10T15:37:51.534Z,0.50
2023-05-10T15:40:19.827Z,0.50
2023-05-10T15:42:49.378Z,0.60
2023-05-10T15:45:17.856Z,0.50
2023-05-10T15:47:46.405Z,0.68
2023-05-10T15:50:14.677Z,0.73
2023-05-10T15:52:43.380Z,0.40
2023-05-10T15:55:13.192Z,0.60
2023-05-10T15:57:42.616Z,0.65
2023-05-10T16:00:14.239Z,0.43
2023-05-10T16:05:11.510Z,0.45
2023-05-10T16:07:40.282Z,0.82
2023-05-10T16:10:10.536Z,0.82
2023-05-10T16:12:39.233Z,1.00
2023-05-10T16:15:09.121Z,0.70
2023-05-10T16:17:38.891Z,1.00
2023-05-10T16:20:08.434Z,1.23
2023-05-10T16:22:37.112Z,1.30
2023-05-10T16:25:05.938Z,1.42
2023-05-10T16:27:34.117Z,1.00
2023-05-10T16:30:03.200Z,1.30
2023-05-10T16:32:31.450Z,0.98
2023-05-10T16:35:01.610Z,1.33
2023-05-10T16:37:30.013Z,1.40
2023-05-10T16:39:58.244Z,1.10
2023-05-10T16:42:26.399Z,1.00
2023-05-10T16:44:55.497Z,1.00
2023-05-10T16:47:26.698Z,2.08
2023-05-10T16:49:55.063Z,1.20
2023-05-10T16:52:24.650Z,1.00
2023-05-10T16:54:52.826Z,1.90
2023-05-10T16:57:20.989Z,2.33
2023-05-10T16:59:49.405Z,0.90
2023-05-10T17:02:17.723Z,1.50
2023-05-10T17:04:46.101Z,1.20
2023-05-10T17:07:14.743Z,0.80
2023-05-10T17:09:44.616Z,0.90
2023-05-10T17:12:12.913Z,0.90
2023-05-10T17:14:41.121Z,1.02
2023-05-10T17:17:09.397Z,0.75
2023-05-10T17:19:37.631Z,1.13
2023-05-10T17:22:05.872Z,1.10
2023-05-10T17:24:34.114Z,0.80
2023-05-10T17:27:04.421Z,0.70
2023-05-10T17:29:32.647Z,0.75
2023-05-10T17:32:01.098Z,0.80
2023-05-10T17:34:29.571Z,0.70
2023-05-10T17:36:58.068Z,0.80
2023-05-10T17:39:26.235Z,0.70
2023-05-10T17:41:54.366Z,0.90
2023-05-10T17:44:25.458Z,0.70
2023-05-10T17:46:53.631Z,0.98
2023-05-10T17:49:21.961Z,0.85
2023-05-10T17:51:50.509Z,0.93
2023-05-10T17:54:18.658Z,0.70
2023-05-10T17:56:46.848Z,0.77
2023-05-10T17:59:14.991Z,0.85
2023-05-10T18:01:44.604Z,0.95
2023-05-10T18:04:12.901Z,0.90
2023-05-10T18:06:41.666Z,0.85
2023-05-10T18:09:09.933Z,0.88
2023-05-10T18:11:38.869Z,0.80
2023-05-10T18:14:07.062Z,0.90
2023-05-10T18:16:35.331Z,1.00
2023-05-10T18:19:05.029Z,0.55
2023-05-10T18:21:33.346Z,0.80
2023-05-10T18:24:01.832Z,0.82
2023-05-10T18:26:30.057Z,0.90
2023-05-10T18:28:59.379Z,0.65
2023-05-10T18:31:29.453Z,0.70
2023-05-10T18:33:57.663Z,1.10
2023-05-10T18:36:28.260Z,1.10
2023-05-10T18:38:56.620Z,0.90
2023-05-10T18:41:26.876Z,1.00
2023-05-10T18:43:55.155Z,1.08
2023-05-10T18:46:23.324Z,0.60
2023-05-10T18:48:51.651Z,0.82
2023-05-10T18:51:20.430Z,0.90
2023-05-10T18:53:50.078Z,1.02
2023-05-10T18:56:18.265Z,0.70
2023-05-10T18:58:46.679Z,0.63
2023-05-10T19:01:14.863Z,0.65
2023-05-10T19:03:43.139Z,0.77
2023-05-10T19:06:11.294Z,0.73
2023-05-10T19:08:39.452Z,0.85
2023-05-10T19:11:09.012Z,1.00
2023-05-10T19:13:37.249Z,0.60
2023-05-10T19:16:06.588Z,1.00
2023-05-10T19:18:35.053Z,1.05
2023-05-10T19:21:04.774Z,0.80
2023-05-10T19:23:33.727Z,0.80
2023-05-10T19:26:02.237Z,0.82
2023-05-10T19:28:31.982Z,1.02
2023-05-10T19:31:00.130Z,0.95
2023-05-10T19:33:28.434Z,0.90
2023-05-10T19:35:57.029Z,1.20
2023-05-10T19:38:26.274Z,1.08
2023-05-10T19:40:58.261Z,0.88
2023-05-10T19:43:26.922Z,0.90
2023-05-10T19:45:59.163Z,1.02
2023-05-10T19:48:27.632Z,0.93
2023-05-10T19:51:00.533Z,0.57
2023-05-10T19:53:29.351Z,0.90
2023-05-10T19:55:58.037Z,1.20
2023-05-10T19:58:26.177Z,1.10
2023-05-10T20:00:54.349Z,1.20
2023-05-10T20:03:23.909Z,1.00
2023-05-10T20:05:52.168Z,1.10
2023-05-10T20:08:20.358Z,1.08
2023-05-10T20:10:48.503Z,1.38
2023-05-10T20:13:16.635Z,1.55
2023-05-10T20:15:44.820Z,1.30
2023-05-10T20:18:13.136Z,1.30
2023-05-10T20:20:43.436Z,1.13
2023-05-10T20:23:11.616Z,1.27
2023-05-10T20:25:39.848Z,1.08
2023-05-10T20:28:10.168Z,1.10
2023-05-10T20:30:38.317Z,1.25
2023-05-10T20:33:06.817Z,1.17
2023-05-10T20:35:35.043Z,1.10
2023-05-10T20:38:05.687Z,1.10
2023-05-10T20:40:33.992Z,1.03
2023-05-10T20:43:02.154Z,1.35
2023-05-10T20:45:30.333Z,1.20
2023-05-10T20:47:58.606Z,1.10
2023-05-10T20:50:26.759Z,1.50
2023-05-10T20:52:54.950Z,1.50
2023-05-10T20:55:24.488Z,1.17
2023-05-10T20:57:52.933Z,1.30
2023-05-10T21:00:21.725Z,1.00
2023-05-10T21:02:49.953Z,1.10
2023-05-10T21:05:18.824Z,1.00
2023-05-10T21:07:47.097Z,0.98
2023-05-10T21:10:15.399Z,0.70
2023-05-10T21:12:45.073Z,0.90
2023-05-10T21:15:13.607Z,0.70
2023-05-10T21:17:41.883Z,0.80
2023-05-10T21:20:11.027Z,0.70
2023-05-10T21:22:39.256Z,0.50
2023-05-10T21:25:08.344Z,0.40
2023-05-10T21:27:36.954Z,0.80
2023-05-10T21:30:07.833Z,0.73
2023-05-10T21:32:36.887Z,0.50
2023-05-10T21:35:05.456Z,0.50
2023-05-10T21:37:33.648Z,0.40
2023-05-10T21:40:01.993Z,0.45
2023-05-10T21:42:30.212Z,0.50
2023-05-10T21:44:58.451Z,0.20
2023-05-10T21:47:28.081Z,0.20
2023-05-10T21:49:56.271Z,0.30
2023-05-10T21:52:24.435Z,0.30
2023-05-10T21:54:52.580Z,0.50
2023-05-10T21:57:21.595Z,0.30
2023-05-10T21:59:49.745Z,0.30
2023-05-10T22:02:17.916Z,0.30
2023-05-10T22:04:47.721Z,0.10
2023-05-10T22:07:16.929Z,0.05
2023-05-10T22:09:45.189Z,0.30
2023-05-10T22:12:13.798Z,0.20
2023-05-10T22:14:41.971Z,0.20
2023-05-10T22:17:10.240Z,0.10
2023-05-10T22:19:38.506Z,0.32
2023-05-10T22:22:08.023Z,0.57
2023-05-10T22:24:36.239Z,0.57
2023-05-10T22:27:04.797Z,0.10
2023-05-10T22:29:33.095Z,0.13
2023-05-10T22:32:05.512Z,0.25
2023-05-10T22:34:34.168Z,0.10
2023-05-10T22:37:03.180Z,0.10
2023-05-10T22:39:32.753Z,0.03
2023-05-10T22:42:00.958Z,0.00
2023-05-10T22:44:29.100Z,0.08
2023-05-10T22:46:58.371Z,0.20
2023-05-10T22:49:27.182Z,0.17
2023-05-10T22:51:55.970Z,0.10
2023-05-10T22:54:24.728Z,0.45
2023-05-10T22:56:54.942Z,0.47
2023-05-10T22:59:23.318Z,0.20
2023-05-10T23:01:51.586Z,0.00
2023-05-10T23:04:19.903Z,0.10
2023-05-10T23:06:48.172Z,0.00
2023-05-10T23:09:16.422Z,0.00
2023-05-10T23:11:44.607Z,0.30
2023-05-10T23:14:14.154Z,0.00
2023-05-10T23:16:42.288Z,0.00
2023-05-10T23:19:10.471Z,0.00
2023-05-10T23:21:38.690Z,0.00
2023-05-10T23:24:08.576Z,0.35
2023-05-10T23:26:36.832Z,0.00
2023-05-10T23:29:04.997Z,0.00
2023-05-10T23:31:34.587Z,0.00
2023-05-10T23:34:03.409Z,0.10
2023-05-10T23:36:31.918Z,0.00
2023-05-10T23:39:00.172Z,0.00
2023-05-10T23:41:28.349Z,0.00
2023-05-10T23:43:56.523Z,0.00
2023-05-10T23:46:24.726Z,0.00
2023-05-10T23:48:54.289Z,0.10
2023-05-10T23:54:04.721Z,0.13
2023-05-10T23:56:33.096Z,0.00
2023-05-10T23:59:01.319Z,0.00
